sensor_id;sensor_type;location;lat;lon;timestamp;temperature;humidity
7002;DHT22;3541;53.230;10.518;2022-08-18T00:02:11;21.60;99.90
7002;DHT22;3541;53.230;10.518;2022-08-18T00:04:39;21.60;99.90
7002;DHT22;3541;53.230;10.518;2022-08-18T00:07:08;21.70;99.90
7002;DHT22;3541;53.230;10.518;2022-08-18T00:09:36;21.60;99.90
7002;DHT22;3541;53.230;10.518;2022-08-18T00:12:06;21.50;99.90
7002;DHT22;3541;53.230;10.518;2022-08-18T00:14:34;21.50;99.90
7002;DHT22;3541;53.230;10.518;2022-08-18T00:17:01;21.60;99.90
7002;DHT22;3541;53.230;10.518;2022-08-18T00:19:27;21.60;99.90
7002;DHT22;3541;53.230;10.518;2022-08-18T00:21:57;21.60;99.90
7002;DHT22;3541;53.230;10.518;2022-08-18T00:24:23;21.50;99.90
7002;DHT22;3541;53.230;10.518;2022-08-18T00:26:50;21.60;99.90
7002;DHT22;3541;53.230;10.518;2022-08-18T00:29:17;21.60;99.90
7002;DHT22;3541;53.230;10.518;2022-08-18T00:31:43;21.60;99.90
7002;DHT22;3541;53.230;10.518;2022-08-18T00:34:10;21.60;99.90
7002;DHT22;3541;53.230;10.518;2022-08-18T00:36:37;21.60;99.90
7002;DHT22;3541;53.230;10.518;2022-08-18T00:39:05;21.60;99.90
7002;DHT22;3541;53.230;10.518;2022-08-18T00:41:32;21.50;99.90
7002;DHT22;3541;53.230;10.518;2022-08-18T00:43:58;21.60;99.90
7002;DHT22;3541;53.230;10.518;2022-08-18T00:46:28;21.50;99.90
7002;DHT22;3541;53.230;10.518;2022-08-18T00:48:55;21.50;99.90
7002;DHT22;3541;53.230;10.518;2022-08-18T00:51:25;21.50;99.90
7002;DHT22;3541;53.230;10.518;2022-08-18T00:53:57;21.50;99.90
7002;DHT22;3541;53.230;10.518;2022-08-18T00:56:29;21.60;99.90
7002;DHT22;3541;53.230;10.518;2022-08-18T00:59:01;21.60;99.90
7002;DHT22;3541;53.230;10.518;2022-08-18T01:01:30;21.50;99.90
7002;DHT22;3541;53.230;10.518;2022-08-18T01:04:02;21.50;99.90
7002;DHT22;3541;53.230;10.518;2022-08-18T01:06:33;21.50;99.90
7002;DHT22;3541;53.230;10.518;2022-08-18T01:09:02;21.50;99.90
7002;DHT22;3541;53.230;10.518;2022-08-18T01:11:31;21.50;99.90
7002;DHT22;3541;53.230;10.518;2022-08-18T01:13:57;21.50;99.90
7002;DHT22;3541;53.230;10.518;2022-08-18T01:16:24;21.50;99.90
7002;DHT22;3541;53.230;10.518;2022-08-18T01:19:08;21.50;99.90
7002;DHT22;3541;53.230;10.518;2022-08-18T01:22:03;21.40;99.90
7002;DHT22;3541;53.230;10.518;2022-08-18T01:24:35;21.40;99.90
7002;DHT22;3541;53.230;10.518;2022-08-18T01:27:20;21.30;99.90
7002;DHT22;3541;53.230;10.518;2022-08-18T01:29:48;21.40;99.90
7002;DHT22;3541;53.230;10.518;2022-08-18T01:32:18;21.40;99.90
7002;DHT22;3541;53.230;10.518;2022-08-18T01:34:46;21.40;99.90
7002;DHT22;3541;53.230;10.518;2022-08-18T01:37:15;21.40;99.90
7002;DHT22;3541;53.230;10.518;2022-08-18T01:39:44;21.30;99.90
7002;DHT22;3541;53.230;10.518;2022-08-18T01:42:11;21.40;99.90
7002;DHT22;3541;53.230;10.518;2022-08-18T01:44:38;21.40;99.90
7002;DHT22;3541;53.230;10.518;2022-08-18T01:47:06;21.40;99.90
7002;DHT22;3541;53.230;10.518;2022-08-18T01:49:33;21.30;99.90
7002;DHT22;3541;53.230;10.518;2022-08-18T01:51:59;21.40;99.90
7002;DHT22;3541;53.230;10.518;2022-08-18T01:54:26;21.40;99.90
7002;DHT22;3541;53.230;10.518;2022-08-18T01:56:56;21.40;99.90
7002;DHT22;3541;53.230;10.518;2022-08-18T01:59:22;21.40;99.90
7002;DHT22;3541;53.230;10.518;2022-08-18T02:01:49;21.40;99.90
7002;DHT22;3541;53.230;10.518;2022-08-18T02:04:17;21.40;99.90
7002;DHT22;3541;53.230;10.518;2022-08-18T02:06:43;21.40;99.90
7002;DHT22;3541;53.230;10.518;2022-08-18T02:09:10;21.40;99.90
7002;DHT22;3541;53.230;10.518;2022-08-18T02:11:37;21.40;99.90
7002;DHT22;3541;53.230;10.518;2022-08-18T02:14:04;21.40;99.90
7002;DHT22;3541;53.230;10.518;2022-08-18T02:16:31;21.40;99.90
7002;DHT22;3541;53.230;10.518;2022-08-18T02:18:58;21.40;99.90
7002;DHT22;3541;53.230;10.518;2022-08-18T02:21:25;21.40;99.90
7002;DHT22;3541;53.230;10.518;2022-08-18T02:23:52;21.30;99.90
7002;DHT22;3541;53.230;10.518;2022-08-18T02:26:18;21.30;99.90
7002;DHT22;3541;53.230;10.518;2022-08-18T02:28:45;21.30;99.90
7002;DHT22;3541;53.230;10.518;2022-08-18T02:31:15;21.30;99.90
7002;DHT22;3541;53.230;10.518;2022-08-18T02:33:43;21.30;99.90
7002;DHT22;3541;53.230;10.518;2022-08-18T02:36:11;21.20;99.90
7002;DHT22;3541;53.230;10.518;2022-08-18T02:38:38;21.20;99.90
7002;DHT22;3541;53.230;10.518;2022-08-18T02:41:07;21.20;99.90
7002;DHT22;3541;53.230;10.518;2022-08-18T02:43:35;21.20;99.90
7002;DHT22;3541;53.230;10.518;2022-08-18T02:46:02;21.20;99.90
7002;DHT22;3541;53.230;10.518;2022-08-18T02:48:31;21.10;99.90
7002;DHT22;3541;53.230;10.518;2022-08-18T02:51:01;21.10;99.90
7002;DHT22;3541;53.230;10.518;2022-08-18T02:53:27;21.10;99.90
7002;DHT22;3541;53.230;10.518;2022-08-18T02:55:54;21.10;99.90
7002;DHT22;3541;53.230;10.518;2022-08-18T02:58:21;21.00;99.90
7002;DHT22;3541;53.230;10.518;2022-08-18T03:00:48;21.00;99.90
7002;DHT22;3541;53.230;10.518;2022-08-18T03:03:14;21.00;99.90
7002;DHT22;3541;53.230;10.518;2022-08-18T03:05:42;20.90;99.90
7002;DHT22;3541;53.230;10.518;2022-08-18T03:08:09;20.90;99.90
7002;DHT22;3541;53.230;10.518;2022-08-18T03:10:36;20.90;99.90
7002;DHT22;3541;53.230;10.518;2022-08-18T03:13:03;20.90;99.90
7002;DHT22;3541;53.230;10.518;2022-08-18T03:15:30;20.90;99.90
7002;DHT22;3541;53.230;10.518;2022-08-18T03:17:57;20.90;99.90
7002;DHT22;3541;53.230;10.518;2022-08-18T03:20:25;20.80;99.90
7002;DHT22;3541;53.230;10.518;2022-08-18T03:22:53;20.80;99.90
7002;DHT22;3541;53.230;10.518;2022-08-18T03:25:20;20.80;99.90
7002;DHT22;3541;53.230;10.518;2022-08-18T03:27:47;20.70;99.90
7002;DHT22;3541;53.230;10.518;2022-08-18T03:30:13;20.70;99.90
7002;DHT22;3541;53.230;10.518;2022-08-18T03:32:40;20.70;99.90
7002;DHT22;3541;53.230;10.518;2022-08-18T03:35:07;20.70;99.90
7002;DHT22;3541;53.230;10.518;2022-08-18T03:37:34;20.60;99.90
7002;DHT22;3541;53.230;10.518;2022-08-18T03:40:03;20.60;99.90
7002;DHT22;3541;53.230;10.518;2022-08-18T03:42:30;20.60;99.90
7002;DHT22;3541;53.230;10.518;2022-08-18T03:44:56;20.60;99.90
7002;DHT22;3541;53.230;10.518;2022-08-18T03:47:23;20.60;99.90
7002;DHT22;3541;53.230;10.518;2022-08-18T03:49:51;20.60;99.90
7002;DHT22;3541;53.230;10.518;2022-08-18T03:52:18;20.60;99.90
7002;DHT22;3541;53.230;10.518;2022-08-18T03:54:45;20.60;99.90
7002;DHT22;3541;53.230;10.518;2022-08-18T03:57:13;20.60;99.90
7002;DHT22;3541;53.230;10.518;2022-08-18T03:59:40;20.60;99.90
7002;DHT22;3541;53.230;10.518;2022-08-18T04:02:09;20.60;99.90
7002;DHT22;3541;53.230;10.518;2022-08-18T04:04:36;20.60;99.90
7002;DHT22;3541;53.230;10.518;2022-08-18T04:07:05;20.50;99.90
7002;DHT22;3541;53.230;10.518;2022-08-18T04:09:34;20.40;99.90
7002;DHT22;3541;53.230;10.518;2022-08-18T04:12:04;20.40;99.90
7002;DHT22;3541;53.230;10.518;2022-08-18T04:14:36;20.40;99.90
7002;DHT22;3541;53.230;10.518;2022-08-18T04:17:03;20.40;99.90
7002;DHT22;3541;53.230;10.518;2022-08-18T04:19:30;20.40;99.90
7002;DHT22;3541;53.230;10.518;2022-08-18T04:21:59;20.40;99.90
7002;DHT22;3541;53.230;10.518;2022-08-18T04:24:28;20.40;99.90
7002;DHT22;3541;53.230;10.518;2022-08-18T04:26:57;20.40;99.90
7002;DHT22;3541;53.230;10.518;2022-08-18T04:29:23;20.40;99.90
7002;DHT22;3541;53.230;10.518;2022-08-18T04:31:51;20.40;99.90
7002;DHT22;3541;53.230;10.518;2022-08-18T04:34:20;20.40;99.90
7002;DHT22;3541;53.230;10.518;2022-08-18T04:36:48;20.40;99.90
7002;DHT22;3541;53.230;10.518;2022-08-18T04:39:18;20.40;99.90
7002;DHT22;3541;53.230;10.518;2022-08-18T04:41:46;20.40;99.90
7002;DHT22;3541;53.230;10.518;2022-08-18T04:44:13;20.40;99.90
7002;DHT22;3541;53.230;10.518;2022-08-18T04:46:44;20.40;99.90
7002;DHT22;3541;53.230;10.518;2022-08-18T04:49:13;20.40;99.90
7002;DHT22;3541;53.230;10.518;2022-08-18T04:51:43;20.50;99.90
7002;DHT22;3541;53.230;10.518;2022-08-18T04:54:30;20.50;99.90
7002;DHT22;3541;53.230;10.518;2022-08-18T04:56:55;20.50;99.90
7002;DHT22;3541;53.230;10.518;2022-08-18T04:59:22;20.50;99.90
7002;DHT22;3541;53.230;10.518;2022-08-18T05:01:49;20.50;99.90
7002;DHT22;3541;53.230;10.518;2022-08-18T05:04:17;20.60;99.90
7002;DHT22;3541;53.230;10.518;2022-08-18T05:06:44;20.60;99.90
7002;DHT22;3541;53.230;10.518;2022-08-18T05:09:13;20.50;99.90
7002;DHT22;3541;53.230;10.518;2022-08-18T05:11:40;20.50;99.90
7002;DHT22;3541;53.230;10.518;2022-08-18T05:14:08;20.50;99.90
7002;DHT22;3541;53.230;10.518;2022-08-18T05:16:36;20.60;99.90
7002;DHT22;3541;53.230;10.518;2022-08-18T05:19:03;20.60;99.90
7002;DHT22;3541;53.230;10.518;2022-08-18T05:21:31;20.70;99.90
7002;DHT22;3541;53.230;10.518;2022-08-18T05:23:58;20.70;99.90
7002;DHT22;3541;53.230;10.518;2022-08-18T05:26:25;20.70;99.90
7002;DHT22;3541;53.230;10.518;2022-08-18T05:28:53;20.80;99.90
7002;DHT22;3541;53.230;10.518;2022-08-18T05:31:23;20.80;99.90
7002;DHT22;3541;53.230;10.518;2022-08-18T05:33:52;20.80;99.90
7002;DHT22;3541;53.230;10.518;2022-08-18T05:36:28;20.90;99.90
7002;DHT22;3541;53.230;10.518;2022-08-18T05:39:05;20.90;99.90
7002;DHT22;3541;53.230;10.518;2022-08-18T05:41:34;20.80;99.90
7002;DHT22;3541;53.230;10.518;2022-08-18T05:44:02;20.80;99.90
7002;DHT22;3541;53.230;10.518;2022-08-18T05:46:37;20.90;99.90
7002;DHT22;3541;53.230;10.518;2022-08-18T05:49:05;20.90;99.90
7002;DHT22;3541;53.230;10.518;2022-08-18T05:51:35;20.90;99.90
7002;DHT22;3541;53.230;10.518;2022-08-18T05:54:06;20.80;99.90
7002;DHT22;3541;53.230;10.518;2022-08-18T05:56:53;20.90;99.90
7002;DHT22;3541;53.230;10.518;2022-08-18T05:59:24;20.90;99.90
7002;DHT22;3541;53.230;10.518;2022-08-18T06:01:57;20.90;99.90
7002;DHT22;3541;53.230;10.518;2022-08-18T06:04:33;21.00;99.90
7002;DHT22;3541;53.230;10.518;2022-08-18T06:07:06;21.00;99.90
7002;DHT22;3541;53.230;10.518;2022-08-18T06:09:37;21.00;99.90
7002;DHT22;3541;53.230;10.518;2022-08-18T06:12:15;21.00;99.90
7002;DHT22;3541;53.230;10.518;2022-08-18T06:14:44;21.00;99.90
7002;DHT22;3541;53.230;10.518;2022-08-18T06:17:25;21.00;99.90
7002;DHT22;3541;53.230;10.518;2022-08-18T06:20:02;21.10;99.90
7002;DHT22;3541;53.230;10.518;2022-08-18T06:22:39;21.10;99.90
7002;DHT22;3541;53.230;10.518;2022-08-18T06:25:13;21.10;99.90
7002;DHT22;3541;53.230;10.518;2022-08-18T06:27:48;21.20;99.90
7002;DHT22;3541;53.230;10.518;2022-08-18T06:30:22;21.20;99.90
7002;DHT22;3541;53.230;10.518;2022-08-18T06:33:11;21.20;99.90
7002;DHT22;3541;53.230;10.518;2022-08-18T06:35:44;21.20;99.90
7002;DHT22;3541;53.230;10.518;2022-08-18T06:38:27;21.30;99.90
7002;DHT22;3541;53.230;10.518;2022-08-18T06:41:11;21.30;99.90
7002;DHT22;3541;53.230;10.518;2022-08-18T06:43:49;21.40;99.90
7002;DHT22;3541;53.230;10.518;2022-08-18T06:46:22;21.30;99.90
7002;DHT22;3541;53.230;10.518;2022-08-18T06:48:54;21.30;99.90
7002;DHT22;3541;53.230;10.518;2022-08-18T06:51:22;21.20;99.90
7002;DHT22;3541;53.230;10.518;2022-08-18T06:53:55;21.30;99.90
7002;DHT22;3541;53.230;10.518;2022-08-18T06:56:31;21.20;99.90
7002;DHT22;3541;53.230;10.518;2022-08-18T06:59:18;21.20;99.90
7002;DHT22;3541;53.230;10.518;2022-08-18T07:01:47;21.20;99.90
7002;DHT22;3541;53.230;10.518;2022-08-18T07:04:40;21.20;99.90
7002;DHT22;3541;53.230;10.518;2022-08-18T07:07:16;21.30;99.90
7002;DHT22;3541;53.230;10.518;2022-08-18T07:09:43;21.40;99.90
7002;DHT22;3541;53.230;10.518;2022-08-18T07:12:18;21.50;99.90
7002;DHT22;3541;53.230;10.518;2022-08-18T07:14:47;21.40;99.90
7002;DHT22;3541;53.230;10.518;2022-08-18T07:17:20;21.30;99.90
7002;DHT22;3541;53.230;10.518;2022-08-18T07:19:58;21.20;99.90
7002;DHT22;3541;53.230;10.518;2022-08-18T07:22:25;21.10;99.90
7002;DHT22;3541;53.230;10.518;2022-08-18T07:24:54;21.00;99.90
7002;DHT22;3541;53.230;10.518;2022-08-18T07:27:40;20.80;99.90
7002;DHT22;3541;53.230;10.518;2022-08-18T07:30:09;20.90;99.90
7002;DHT22;3541;53.230;10.518;2022-08-18T07:32:41;20.90;99.90
7002;DHT22;3541;53.230;10.518;2022-08-18T07:35:11;20.90;99.90
7002;DHT22;3541;53.230;10.518;2022-08-18T07:37:43;20.80;99.90
7002;DHT22;3541;53.230;10.518;2022-08-18T07:40:19;20.70;99.90
7002;DHT22;3541;53.230;10.518;2022-08-18T07:42:53;20.70;99.90
7002;DHT22;3541;53.230;10.518;2022-08-18T07:45:25;20.70;99.90
7002;DHT22;3541;53.230;10.518;2022-08-18T07:48:02;20.70;99.90
7002;DHT22;3541;53.230;10.518;2022-08-18T07:50:36;20.70;99.90
7002;DHT22;3541;53.230;10.518;2022-08-18T07:53:14;20.70;99.90
7002;DHT22;3541;53.230;10.518;2022-08-18T07:55:47;20.70;99.90
7002;DHT22;3541;53.230;10.518;2022-08-18T07:58:23;20.70;99.90
7002;DHT22;3541;53.230;10.518;2022-08-18T08:00:55;20.70;99.90
7002;DHT22;3541;53.230;10.518;2022-08-18T08:03:35;20.60;99.90
7002;DHT22;3541;53.230;10.518;2022-08-18T08:06:08;20.60;99.90
7002;DHT22;3541;53.230;10.518;2022-08-18T08:08:40;20.50;99.90
7002;DHT22;3541;53.230;10.518;2022-08-18T08:11:17;20.60;99.90
7002;DHT22;3541;53.230;10.518;2022-08-18T08:14:01;20.70;99.90
7002;DHT22;3541;53.230;10.518;2022-08-18T08:16:39;20.70;99.90
7002;DHT22;3541;53.230;10.518;2022-08-18T08:19:31;20.70;99.90
7002;DHT22;3541;53.230;10.518;2022-08-18T08:22:03;20.50;99.90
7002;DHT22;3541;53.230;10.518;2022-08-18T08:24:36;20.50;99.90
7002;DHT22;3541;53.230;10.518;2022-08-18T08:27:10;20.50;99.90
7002;DHT22;3541;53.230;10.518;2022-08-18T08:29:50;20.40;99.90
7002;DHT22;3541;53.230;10.518;2022-08-18T08:32:27;20.40;99.90
7002;DHT22;3541;53.230;10.518;2022-08-18T08:35:00;20.40;99.90
7002;DHT22;3541;53.230;10.518;2022-08-18T08:37:31;20.50;99.90
7002;DHT22;3541;53.230;10.518;2022-08-18T08:40:02;20.40;99.90
7002;DHT22;3541;53.230;10.518;2022-08-18T08:42:38;20.40;99.90
7002;DHT22;3541;53.230;10.518;2022-08-18T08:45:10;20.40;99.90
7002;DHT22;3541;53.230;10.518;2022-08-18T08:47:44;20.50;99.90
7002;DHT22;3541;53.230;10.518;2022-08-18T08:50:18;20.60;99.90
7002;DHT22;3541;53.230;10.518;2022-08-18T08:52:48;20.60;99.90
7002;DHT22;3541;53.230;10.518;2022-08-18T08:55:20;20.60;99.90
7002;DHT22;3541;53.230;10.518;2022-08-18T08:57:52;20.70;99.90
7002;DHT22;3541;53.230;10.518;2022-08-18T09:00:23;20.70;99.90
7002;DHT22;3541;53.230;10.518;2022-08-18T09:03:17;20.80;99.90
7002;DHT22;3541;53.230;10.518;2022-08-18T09:05:51;20.70;99.90
7002;DHT22;3541;53.230;10.518;2022-08-18T09:08:31;20.70;99.90
7002;DHT22;3541;53.230;10.518;2022-08-18T09:11:21;20.60;99.90
7002;DHT22;3541;53.230;10.518;2022-08-18T09:14:03;20.60;99.90
7002;DHT22;3541;53.230;10.518;2022-08-18T09:16:47;20.70;99.90
7002;DHT22;3541;53.230;10.518;2022-08-18T09:19:39;20.70;99.90
7002;DHT22;3541;53.230;10.518;2022-08-18T09:22:17;20.70;99.90
7002;DHT22;3541;53.230;10.518;2022-08-18T09:24:51;20.90;99.90
7002;DHT22;3541;53.230;10.518;2022-08-18T09:27:30;20.90;99.90
7002;DHT22;3541;53.230;10.518;2022-08-18T09:30:00;21.00;99.90
7002;DHT22;3541;53.230;10.518;2022-08-18T09:32:54;21.00;99.90
7002;DHT22;3541;53.230;10.518;2022-08-18T09:35:40;21.10;99.90
7002;DHT22;3541;53.230;10.518;2022-08-18T09:38:13;21.00;99.90
7002;DHT22;3541;53.230;10.518;2022-08-18T09:41:05;21.10;99.90
7002;DHT22;3541;53.230;10.518;2022-08-18T09:43:57;21.20;99.90
7002;DHT22;3541;53.230;10.518;2022-08-18T09:47:04;21.20;99.90
7002;DHT22;3541;53.230;10.518;2022-08-18T09:49:47;21.30;99.90
7002;DHT22;3541;53.230;10.518;2022-08-18T09:55:51;21.30;99.90
7002;DHT22;3541;53.230;10.518;2022-08-18T09:58:46;21.40;99.90
7002;DHT22;3541;53.230;10.518;2022-08-18T10:01:22;21.40;99.90
7002;DHT22;3541;53.230;10.518;2022-08-18T10:04:16;21.50;99.90
7002;DHT22;3541;53.230;10.518;2022-08-18T10:06:47;21.50;99.90
7002;DHT22;3541;53.230;10.518;2022-08-18T10:09:25;21.60;99.90
7002;DHT22;3541;53.230;10.518;2022-08-18T10:12:13;21.50;99.90
7002;DHT22;3541;53.230;10.518;2022-08-18T10:15:05;21.60;99.90
7002;DHT22;3541;53.230;10.518;2022-08-18T10:20:41;21.90;99.90
7002;DHT22;3541;53.230;10.518;2022-08-18T10:23:51;22.00;99.90
7002;DHT22;3541;53.230;10.518;2022-08-18T10:32:41;22.10;99.90
7002;DHT22;3541;53.230;10.518;2022-08-18T10:38:41;22.30;99.90
7002;DHT22;3541;53.230;10.518;2022-08-18T10:41:13;22.50;99.90
7002;DHT22;3541;53.230;10.518;2022-08-18T10:43:47;22.70;99.90
7002;DHT22;3541;53.230;10.518;2022-08-18T10:46:18;22.80;99.90
7002;DHT22;3541;53.230;10.518;2022-08-18T10:49:02;22.80;99.90
7002;DHT22;3541;53.230;10.518;2022-08-18T10:51:42;22.80;99.90
7002;DHT22;3541;53.230;10.518;2022-08-18T10:54:19;22.80;99.90
7002;DHT22;3541;53.230;10.518;2022-08-18T10:56:54;22.80;99.90
7002;DHT22;3541;53.230;10.518;2022-08-18T10:59:27;23.10;99.90
7002;DHT22;3541;53.230;10.518;2022-08-18T11:02:13;23.30;99.90
7002;DHT22;3541;53.230;10.518;2022-08-18T11:04:43;23.30;99.90
7002;DHT22;3541;53.230;10.518;2022-08-18T11:07:14;23.20;99.90
7002;DHT22;3541;53.230;10.518;2022-08-18T11:09:46;23.20;99.90
7002;DHT22;3541;53.230;10.518;2022-08-18T11:12:14;23.30;99.90
7002;DHT22;3541;53.230;10.518;2022-08-18T11:15:04;23.40;99.90
7002;DHT22;3541;53.230;10.518;2022-08-18T11:17:43;23.50;99.90
7002;DHT22;3541;53.230;10.518;2022-08-18T11:20:14;23.70;99.90
7002;DHT22;3541;53.230;10.518;2022-08-18T11:22:49;23.80;99.90
7002;DHT22;3541;53.230;10.518;2022-08-18T11:25:23;23.80;99.90
7002;DHT22;3541;53.230;10.518;2022-08-18T11:27:50;23.80;99.90
7002;DHT22;3541;53.230;10.518;2022-08-18T11:30:17;23.80;99.90
7002;DHT22;3541;53.230;10.518;2022-08-18T11:32:44;23.90;99.90
7002;DHT22;3541;53.230;10.518;2022-08-18T11:35:14;24.00;99.90
7002;DHT22;3541;53.230;10.518;2022-08-18T11:37:55;24.10;99.90
7002;DHT22;3541;53.230;10.518;2022-08-18T11:40:34;24.30;99.90
7002;DHT22;3541;53.230;10.518;2022-08-18T11:43:04;24.40;99.90
7002;DHT22;3541;53.230;10.518;2022-08-18T11:45:49;24.40;99.90
7002;DHT22;3541;53.230;10.518;2022-08-18T11:48:19;24.20;99.90
7002;DHT22;3541;53.230;10.518;2022-08-18T11:50:57;24.00;99.90
7002;DHT22;3541;53.230;10.518;2022-08-18T11:53:36;24.10;99.90
7002;DHT22;3541;53.230;10.518;2022-08-18T11:56:10;24.10;99.90
7002;DHT22;3541;53.230;10.518;2022-08-18T11:58:41;24.30;99.90
7002;DHT22;3541;53.230;10.518;2022-08-18T12:01:09;24.40;99.90
7002;DHT22;3541;53.230;10.518;2022-08-18T12:03:39;24.50;99.90
7002;DHT22;3541;53.230;10.518;2022-08-18T12:06:19;24.70;99.90
7002;DHT22;3541;53.230;10.518;2022-08-18T12:08:51;24.90;99.90
7002;DHT22;3541;53.230;10.518;2022-08-18T12:11:21;25.10;99.90
7002;DHT22;3541;53.230;10.518;2022-08-18T12:13:59;25.10;99.90
7002;DHT22;3541;53.230;10.518;2022-08-18T12:16:35;25.30;99.90
7002;DHT22;3541;53.230;10.518;2022-08-18T12:19:03;25.20;99.90
7002;DHT22;3541;53.230;10.518;2022-08-18T12:21:31;25.20;99.90
7002;DHT22;3541;53.230;10.518;2022-08-18T12:23:58;25.30;99.90
7002;DHT22;3541;53.230;10.518;2022-08-18T12:26:26;25.40;99.90
7002;DHT22;3541;53.230;10.518;2022-08-18T12:28:52;25.60;99.90
7002;DHT22;3541;53.230;10.518;2022-08-18T12:31:19;25.80;99.90
7002;DHT22;3541;53.230;10.518;2022-08-18T12:33:46;25.70;99.90
7002;DHT22;3541;53.230;10.518;2022-08-18T12:36:12;25.70;99.90
7002;DHT22;3541;53.230;10.518;2022-08-18T12:38:42;25.60;99.90
7002;DHT22;3541;53.230;10.518;2022-08-18T12:41:09;25.60;99.90
7002;DHT22;3541;53.230;10.518;2022-08-18T12:43:40;25.90;99.90
7002;DHT22;3541;53.230;10.518;2022-08-18T12:46:07;25.80;99.90
7002;DHT22;3541;53.230;10.518;2022-08-18T12:48:36;25.70;99.90
7002;DHT22;3541;53.230;10.518;2022-08-18T12:51:03;26.00;99.90
7002;DHT22;3541;53.230;10.518;2022-08-18T12:53:30;26.00;99.90
7002;DHT22;3541;53.230;10.518;2022-08-18T12:55:57;26.00;99.90
7002;DHT22;3541;53.230;10.518;2022-08-18T12:58:24;26.10;99.90
7002;DHT22;3541;53.230;10.518;2022-08-18T13:00:53;26.20;99.90
7002;DHT22;3541;53.230;10.518;2022-08-18T13:03:20;26.30;99.90
7002;DHT22;3541;53.230;10.518;2022-08-18T13:05:47;26.50;99.90
7002;DHT22;3541;53.230;10.518;2022-08-18T13:08:17;26.70;99.90
7002;DHT22;3541;53.230;10.518;2022-08-18T13:10:44;26.60;99.90
7002;DHT22;3541;53.230;10.518;2022-08-18T13:13:10;26.60;99.90
7002;DHT22;3541;53.230;10.518;2022-08-18T13:15:37;26.70;99.90
7002;DHT22;3541;53.230;10.518;2022-08-18T13:18:05;26.70;99.90
7002;DHT22;3541;53.230;10.518;2022-08-18T13:20:32;26.70;99.90
7002;DHT22;3541;53.230;10.518;2022-08-18T13:23:00;26.80;99.90
7002;DHT22;3541;53.230;10.518;2022-08-18T13:25:27;26.90;99.90
7002;DHT22;3541;53.230;10.518;2022-08-18T13:27:54;26.90;99.90
7002;DHT22;3541;53.230;10.518;2022-08-18T13:30:21;27.00;99.90
7002;DHT22;3541;53.230;10.518;2022-08-18T13:32:47;27.10;99.90
7002;DHT22;3541;53.230;10.518;2022-08-18T13:35:16;27.10;99.90
7002;DHT22;3541;53.230;10.518;2022-08-18T13:37:42;26.70;99.90
7002;DHT22;3541;53.230;10.518;2022-08-18T13:40:11;26.80;99.90
7002;DHT22;3541;53.230;10.518;2022-08-18T13:42:43;26.90;99.90
7002;DHT22;3541;53.230;10.518;2022-08-18T13:45:12;27.10;99.90
7002;DHT22;3541;53.230;10.518;2022-08-18T13:47:39;27.10;99.90
7002;DHT22;3541;53.230;10.518;2022-08-18T13:50:07;27.10;99.90
7002;DHT22;3541;53.230;10.518;2022-08-18T13:52:37;27.20;99.90
7002;DHT22;3541;53.230;10.518;2022-08-18T13:55:06;27.30;99.90
7002;DHT22;3541;53.230;10.518;2022-08-18T13:57:34;27.50;99.90
7002;DHT22;3541;53.230;10.518;2022-08-18T14:00:00;27.40;99.90
7002;DHT22;3541;53.230;10.518;2022-08-18T14:02:27;27.50;99.90
7002;DHT22;3541;53.230;10.518;2022-08-18T14:04:54;27.70;99.90
7002;DHT22;3541;53.230;10.518;2022-08-18T14:07:20;27.80;99.90
7002;DHT22;3541;53.230;10.518;2022-08-18T14:09:48;28.10;99.90
7002;DHT22;3541;53.230;10.518;2022-08-18T14:12:17;28.30;99.90
7002;DHT22;3541;53.230;10.518;2022-08-18T14:14:45;28.50;99.90
7002;DHT22;3541;53.230;10.518;2022-08-18T14:17:11;28.40;99.90
7002;DHT22;3541;53.230;10.518;2022-08-18T14:19:38;28.60;99.90
7002;DHT22;3541;53.230;10.518;2022-08-18T14:22:22;28.80;99.90
7002;DHT22;3541;53.230;10.518;2022-08-18T14:25:09;28.80;99.90
7002;DHT22;3541;53.230;10.518;2022-08-18T14:27:53;28.70;99.90
7002;DHT22;3541;53.230;10.518;2022-08-18T14:30:20;28.70;99.90
7002;DHT22;3541;53.230;10.518;2022-08-18T14:32:46;28.60;99.90
7002;DHT22;3541;53.230;10.518;2022-08-18T14:35:14;28.60;99.90
7002;DHT22;3541;53.230;10.518;2022-08-18T14:37:41;28.60;99.90
7002;DHT22;3541;53.230;10.518;2022-08-18T14:40:10;28.90;99.90
7002;DHT22;3541;53.230;10.518;2022-08-18T14:42:37;28.90;99.90
7002;DHT22;3541;53.230;10.518;2022-08-18T14:45:05;29.10;99.90
7002;DHT22;3541;53.230;10.518;2022-08-18T14:47:32;29.10;99.90
7002;DHT22;3541;53.230;10.518;2022-08-18T14:49:58;28.80;99.90
7002;DHT22;3541;53.230;10.518;2022-08-18T14:52:26;28.40;99.90
7002;DHT22;3541;53.230;10.518;2022-08-18T14:54:53;28.00;99.90
7002;DHT22;3541;53.230;10.518;2022-08-18T14:57:21;28.00;99.90
7002;DHT22;3541;53.230;10.518;2022-08-18T14:59:47;28.40;99.90
7002;DHT22;3541;53.230;10.518;2022-08-18T15:02:14;28.90;99.90
7002;DHT22;3541;53.230;10.518;2022-08-18T15:04:41;28.90;99.90
7002;DHT22;3541;53.230;10.518;2022-08-18T15:07:09;28.70;99.90
7002;DHT22;3541;53.230;10.518;2022-08-18T15:09:36;28.40;99.90
7002;DHT22;3541;53.230;10.518;2022-08-18T15:12:02;28.20;99.90
7002;DHT22;3541;53.230;10.518;2022-08-18T15:14:31;28.10;99.90
7002;DHT22;3541;53.230;10.518;2022-08-18T15:16:59;27.90;99.90
7002;DHT22;3541;53.230;10.518;2022-08-18T15:19:26;27.70;99.90
7002;DHT22;3541;53.230;10.518;2022-08-18T15:21:53;27.70;99.90
7002;DHT22;3541;53.230;10.518;2022-08-18T15:24:38;27.70;99.90
7002;DHT22;3541;53.230;10.518;2022-08-18T15:27:28;27.90;99.90
7002;DHT22;3541;53.230;10.518;2022-08-18T15:29:57;27.90;99.90
7002;DHT22;3541;53.230;10.518;2022-08-18T15:32:26;27.70;99.90
7002;DHT22;3541;53.230;10.518;2022-08-18T15:34:53;27.50;99.90
7002;DHT22;3541;53.230;10.518;2022-08-18T15:37:20;27.30;99.90
7002;DHT22;3541;53.230;10.518;2022-08-18T15:39:47;27.00;99.90
7002;DHT22;3541;53.230;10.518;2022-08-18T15:42:14;26.90;99.90
7002;DHT22;3541;53.230;10.518;2022-08-18T15:44:40;26.90;99.90
7002;DHT22;3541;53.230;10.518;2022-08-18T15:47:08;26.90;99.90
7002;DHT22;3541;53.230;10.518;2022-08-18T15:49:35;26.90;99.90
7002;DHT22;3541;53.230;10.518;2022-08-18T15:52:03;27.00;99.90
7002;DHT22;3541;53.230;10.518;2022-08-18T15:54:31;27.10;99.90
7002;DHT22;3541;53.230;10.518;2022-08-18T15:56:57;27.10;99.90
7002;DHT22;3541;53.230;10.518;2022-08-18T15:59:24;27.10;99.90
7002;DHT22;3541;53.230;10.518;2022-08-18T16:01:51;27.00;99.90
7002;DHT22;3541;53.230;10.518;2022-08-18T16:04:19;27.00;99.90
7002;DHT22;3541;53.230;10.518;2022-08-18T16:06:46;27.00;99.90
7002;DHT22;3541;53.230;10.518;2022-08-18T16:09:15;27.00;99.90
7002;DHT22;3541;53.230;10.518;2022-08-18T16:11:42;26.90;99.90
7002;DHT22;3541;53.230;10.518;2022-08-18T16:14:09;27.00;99.90
7002;DHT22;3541;53.230;10.518;2022-08-18T16:16:35;26.90;99.90
7002;DHT22;3541;53.230;10.518;2022-08-18T16:19:04;26.90;99.90
7002;DHT22;3541;53.230;10.518;2022-08-18T16:21:33;26.90;99.90
7002;DHT22;3541;53.230;10.518;2022-08-18T16:24:05;26.90;99.90
7002;DHT22;3541;53.230;10.518;2022-08-18T16:26:32;26.90;99.90
7002;DHT22;3541;53.230;10.518;2022-08-18T16:28:58;26.90;99.90